createdAt,value
2018-06-11T07:27:17.917Z,25.8
2018-06-11T07:28:07.857Z,25.8
2018-06-11T07:28:57.631Z,25.8
2018-06-11T07:29:46.815Z,25.8
2018-06-11T07:30:37.798Z,25.8
2018-06-11T07:31:28.215Z,25.9
2018-06-11T07:32:17.606Z,25.8
2018-06-11T07:33:07.158Z,25.8
2018-06-11T07:33:57.690Z,25.8
2018-06-11T07:34:48.067Z,25.8
2018-06-11T07:35:36.740Z,25.9
2018-06-11T07:36:28.171Z,25.9
2018-06-11T07:37:18.247Z,25.9
2018-06-11T07:38:07.753Z,25.9
2018-06-11T07:38:58.361Z,25.9
2018-06-11T07:39:48.400Z,25.9
2018-06-11T07:40:37.912Z,25.9
2018-06-11T07:41:28.021Z,25.9
2018-06-11T07:42:18.301Z,25.9
2018-06-11T07:43:07.389Z,25.9
2018-06-11T07:43:58.487Z,25.9
2018-06-11T07:44:48.540Z,25.9
2018-06-11T07:45:37.823Z,25.9
2018-06-11T07:46:28.977Z,25.9
2018-06-11T07:47:18.698Z,25.9
2018-06-11T07:48:09.578Z,25.9
2018-06-11T07:48:58.409Z,25.9
2018-06-11T07:49:49.499Z,25.9
2018-06-11T07:50:39.248Z,25.9
2018-06-11T07:51:29.011Z,25.9
2018-06-11T07:52:18.311Z,25.9
2018-06-11T07:53:08.995Z,25.9
2018-06-11T07:53:59.528Z,25.9
2018-06-11T07:54:48.774Z,25.9
2018-06-11T07:55:39.414Z,25.9
2018-06-11T07:56:28.930Z,25.9
2018-06-11T07:57:19.864Z,26
2018-06-11T07:58:09.569Z,26
2018-06-11T07:58:59.621Z,26
2018-06-11T07:59:49.992Z,26
2018-06-11T08:00:39.843Z,26
2018-06-11T08:01:31.345Z,26
2018-06-11T08:02:19.584Z,26.1
2018-06-11T08:03:09.725Z,26
2018-06-11T08:04:00.143Z,26.1
2018-06-11T08:04:50.431Z,26
2018-06-11T08:05:39.571Z,26
2018-06-11T08:06:30.439Z,26.1
2018-06-11T08:07:19.226Z,26.1
2018-06-11T08:08:10.933Z,26.1
2018-06-11T08:08:59.880Z,26.1
2018-06-11T08:09:50.520Z,26.1
2018-06-11T08:10:40.779Z,26.1
2018-06-11T08:11:30.838Z,26.1
2018-06-11T08:12:21.208Z,26.1
2018-06-11T08:13:10.500Z,26.1
2018-06-11T08:14:00.549Z,26.1
2018-06-11T08:14:50.350Z,26.1
2018-06-11T08:15:40.392Z,26
2018-06-11T08:16:30.968Z,26.1
2018-06-11T08:17:21.562Z,26.1
2018-06-11T08:18:11.421Z,26.1
2018-06-11T08:19:01.759Z,26.1
2018-06-11T08:19:51.556Z,26.1
2018-06-11T08:20:41.576Z,26.1
2018-06-11T08:21:31.405Z,26.1
2018-06-11T08:22:21.414Z,26.1
2018-06-11T08:23:11.777Z,26.1
2018-06-11T08:24:01.583Z,26.1
2018-06-11T08:24:51.149Z,26.1
2018-06-11T08:25:41.959Z,26.1
2018-06-11T08:26:31.794Z,26.2
2018-06-11T08:27:21.754Z,26.2
2018-06-11T08:28:11.605Z,26.2
2018-06-11T08:29:02.509Z,26.2
2018-06-11T08:29:52.324Z,26.2
2018-06-11T08:30:42.318Z,26.2
2018-06-11T08:31:32.223Z,26.2
2018-06-11T08:32:22.259Z,26.2
2018-06-11T08:33:12.215Z,26.2
2018-06-11T08:34:02.342Z,26.2
2018-06-11T08:34:52.434Z,26.3
2018-06-11T08:35:42.759Z,26.3
2018-06-11T08:36:32.802Z,26.3
2018-06-11T08:37:22.661Z,26.3
2018-06-11T08:38:12.489Z,26.3
2018-06-11T08:39:01.903Z,26.3
2018-06-11T08:39:52.245Z,26.3
2018-06-11T08:40:42.614Z,26.3
2018-06-11T08:41:32.930Z,26.3
2018-06-11T08:42:22.253Z,26.3
2018-06-11T08:43:12.928Z,26.3
2018-06-11T08:44:02.622Z,26.3
2018-06-11T08:44:53.182Z,26.3
2018-06-11T08:45:43.848Z,26.3
2018-06-11T08:46:31.477Z,26.3
2018-06-11T08:47:22.931Z,26.3
2018-06-11T08:48:12.417Z,26.3
2018-06-11T08:49:03.207Z,26.3
2018-06-11T08:49:54.169Z,26.3
2018-06-11T08:50:43.478Z,26.3
2018-06-11T08:51:33.437Z,26.3
2018-06-11T08:52:23.204Z,26.3
2018-06-11T08:53:14.439Z,26.3
2018-06-11T08:54:03.697Z,26.3
2018-06-11T08:54:53.744Z,26.3
2018-06-11T08:55:44.323Z,26.3
2018-06-11T08:56:34.395Z,26.3
2018-06-11T08:57:24.695Z,26.3
2018-06-11T08:58:13.630Z,26.3
2018-06-11T08:59:04.545Z,26.3
2018-06-11T08:59:56.079Z,26.3
2018-06-11T09:00:43.637Z,26.3
2018-06-11T09:01:34.286Z,26.4
2018-06-11T09:02:24.812Z,26.4
2018-06-11T09:03:14.501Z,26.3
2018-06-11T09:04:04.948Z,26.3
2018-06-11T09:04:54.880Z,26.3
2018-06-11T09:05:44.604Z,26.4
2018-06-11T09:06:35.449Z,26.3
2018-06-11T09:07:24.956Z,26.4
2018-06-11T09:08:15.015Z,26.3
2018-06-11T09:09:05.058Z,26.3
2018-06-11T09:09:54.897Z,26.3
2018-06-11T09:10:44.937Z,26.3
2018-06-11T09:11:34.669Z,26.3
2018-06-11T09:12:25.397Z,26.4
2018-06-11T09:13:15.993Z,26.4
2018-06-11T09:14:05.771Z,26.4
2018-06-11T09:14:55.828Z,26.4
2018-06-11T09:15:45.883Z,26.4
2018-06-11T09:16:35.632Z,26.4
2018-06-11T09:17:25.299Z,26.4
2018-06-11T09:18:19.413Z,26.4
2018-06-11T09:19:05.596Z,26.4
2018-06-11T09:19:55.712Z,26.4
2018-06-11T09:20:45.528Z,26.4
2018-06-11T09:21:36.068Z,26.4
2018-06-11T09:22:26.398Z,26.4
2018-06-11T09:23:16.443Z,26.4
2018-06-11T09:24:05.684Z,26.4
2018-06-11T09:24:56.589Z,26.4
2018-06-11T09:25:46.156Z,26.4
2018-06-11T09:26:36.701Z,26.4
2018-06-11T09:27:26.564Z,26.4
2018-06-11T09:28:16.830Z,26.4
2018-06-11T09:29:07.140Z,26.4
2018-06-11T09:29:56.737Z,26.4
2018-06-11T09:30:46.797Z,26.4
2018-06-11T09:31:37.118Z,26.4
2018-06-11T09:32:26.574Z,26.4
2018-06-11T09:33:16.993Z,26.4
2018-06-11T09:34:07.025Z,26.4
2018-06-11T09:34:57.387Z,26.4
2018-06-11T09:35:47.155Z,26.4
2018-06-11T09:36:37.718Z,26.4
2018-06-11T09:37:27.243Z,26.4
2018-06-11T09:38:18.376Z,26.4
2018-06-11T09:39:07.698Z,26.4
2018-06-11T09:39:57.555Z,26.4
2018-06-11T09:40:47.079Z,26.4
2018-06-11T09:41:36.768Z,26.4
2018-06-11T09:42:28.251Z,26.4
2018-06-11T09:43:17.450Z,26.4
2018-06-11T09:44:09.344Z,26.4
2018-06-11T09:44:57.905Z,26.4
2018-06-11T09:45:47.652Z,26.4
2018-06-11T09:46:38.549Z,26.4
2018-06-11T09:47:28.081Z,26.4
2018-06-11T09:48:17.542Z,26.4
2018-06-11T09:49:08.206Z,26.4
2018-06-11T09:49:57.865Z,26.5
2018-06-11T09:50:47.497Z,26.5
2018-06-11T09:51:37.707Z,26.4
2018-06-11T09:52:28.744Z,26.5
2018-06-11T09:53:18.800Z,26.5
2018-06-11T09:54:08.027Z,26.5
2018-06-11T09:54:59.221Z,26.5
2018-06-11T09:55:48.344Z,26.5
2018-06-11T09:56:39.064Z,26.4
2018-06-11T09:57:28.811Z,26.4
2018-06-11T09:58:18.619Z,26.4
2018-06-11T09:59:09.248Z,26.4
2018-06-11T09:59:58.744Z,26.4
2018-06-11T10:00:49.116Z,26.5
2018-06-11T10:01:39.016Z,26.5
2018-06-11T10:02:28.651Z,26.5
2018-06-11T10:03:19.081Z,26.5
2018-06-11T10:04:09.436Z,26.5
2018-06-11T10:04:59.678Z,26.4
2018-06-11T10:05:48.971Z,26.4
2018-06-11T10:06:39.566Z,26.5
2018-06-11T10:07:29.135Z,26.5
2018-06-11T10:08:18.836Z,26.5
2018-06-11T10:09:10.911Z,26.5
2018-06-11T10:10:00.081Z,26.5
2018-06-11T10:10:50.141Z,26.6
2018-06-11T10:11:39.669Z,26.5
2018-06-11T10:12:31.296Z,26.6
2018-06-11T10:13:20.578Z,26.6
2018-06-11T10:14:09.860Z,26.6
2018-06-11T10:15:00.140Z,26.5
2018-06-11T10:15:50.547Z,26.6
2018-06-11T10:16:40.583Z,26.6
2018-06-11T10:17:29.336Z,26.6
2018-06-11T10:18:20.438Z,26.6
2018-06-11T10:19:10.768Z,26.6
2018-06-11T10:20:00.898Z,26.6
2018-06-11T10:20:50.679Z,26.5
2018-06-11T10:21:40.974Z,26.5
2018-06-11T10:22:30.784Z,26.5
2018-06-11T10:23:20.309Z,26.5
2018-06-11T10:24:11.234Z,26.5
2018-06-11T10:25:02.012Z,26.5
2018-06-11T10:25:51.596Z,26.6
2018-06-11T10:26:41.392Z,26.6
2018-06-11T10:27:31.747Z,26.6
2018-06-11T10:28:21.825Z,26.6
2018-06-11T10:29:11.290Z,26.6
2018-06-11T10:30:01.650Z,26.6
2018-06-11T10:30:51.783Z,26.6
2018-06-11T10:31:41.284Z,26.6
2018-06-11T10:32:31.729Z,26.6
2018-06-11T10:33:21.602Z,26.6
2018-06-11T10:34:11.674Z,26.6
2018-06-11T10:35:02.311Z,26.6
2018-06-11T10:35:52.360Z,26.6
2018-06-11T10:36:41.363Z,26.6
2018-06-11T10:37:31.733Z,26.6
2018-06-11T10:38:22.238Z,26.7
2018-06-11T10:39:11.847Z,26.6
2018-06-11T10:40:01.842Z,26.6
2018-06-11T10:40:52.500Z,26.6
2018-06-11T10:41:41.954Z,26.6
2018-06-11T10:42:32.295Z,26.6
2018-06-11T10:43:21.336Z,26.6
2018-06-11T10:44:11.436Z,26.6
2018-06-11T10:45:02.269Z,26.6
2018-06-11T10:45:52.924Z,26.6
2018-06-11T10:46:43.208Z,26.6
2018-06-11T10:47:33.241Z,26.6
2018-06-11T10:48:22.253Z,26.6
2018-06-11T10:49:12.867Z,26.6
2018-06-11T10:50:02.688Z,26.6
2018-06-11T10:50:52.450Z,26.6
2018-06-11T10:51:43.580Z,26.6
2018-06-11T10:52:32.886Z,26.6
2018-06-11T10:53:23.161Z,26.6
2018-06-11T10:54:13.826Z,26.6
2018-06-11T10:55:02.593Z,26.6
2018-06-11T10:55:52.914Z,26.6
2018-06-11T10:56:42.635Z,26.6
2018-06-11T10:57:33.525Z,26.6
2018-06-11T10:58:23.115Z,26.7
2018-06-11T10:59:13.140Z,26.7
2018-06-11T11:00:03.710Z,26.7
2018-06-11T11:00:52.931Z,26.7
2018-06-11T11:01:43.857Z,26.7
2018-06-11T11:02:33.327Z,26.7
2018-06-11T11:03:23.705Z,26.7
2018-06-11T11:04:14.046Z,26.7
2018-06-11T11:05:04.722Z,26.7
2018-06-11T11:05:54.757Z,26.7
2018-06-11T11:06:44.268Z,26.7
2018-06-11T11:07:34.967Z,26.7
2018-06-11T11:08:24.910Z,26.7
2018-06-11T11:09:14.386Z,26.7
2018-06-11T11:10:04.776Z,26.7
2018-06-11T11:10:55.139Z,26.6
2018-06-11T11:11:44.266Z,26.6
2018-06-11T11:12:35.615Z,26.6
2018-06-11T11:13:24.987Z,26.7
2018-06-11T11:14:15.139Z,26.7
2018-06-11T11:15:05.167Z,26.7
2018-06-11T11:15:54.378Z,26.7
2018-06-11T11:16:44.702Z,26.8
2018-06-11T11:17:34.518Z,26.8
2018-06-11T11:18:25.113Z,26.8
2018-06-11T11:19:14.908Z,26.7
2018-06-11T11:20:04.735Z,26.8
2018-06-11T11:20:55.081Z,26.8
2018-06-11T11:21:45.933Z,26.8
2018-06-11T11:22:35.741Z,26.8
2018-06-11T11:23:25.520Z,26.7
2018-06-11T11:24:15.831Z,26.7
2018-06-11T11:25:05.955Z,26.8
2018-06-11T11:25:56.000Z,26.8
2018-06-11T11:26:45.745Z,26.8
2018-06-11T11:27:35.526Z,26.8
2018-06-11T11:28:26.493Z,26.8
2018-06-11T11:29:15.417Z,26.8
2018-06-11T11:30:06.025Z,26.8
2018-06-11T11:30:56.338Z,26.8
2018-06-11T11:31:46.731Z,26.8
2018-06-11T11:32:35.649Z,26.8
2018-06-11T11:33:26.798Z,26.8
2018-06-11T11:34:16.057Z,26.8
2018-06-11T11:35:06.989Z,26.8
2018-06-11T11:35:55.664Z,26.8
2018-06-11T11:36:47.069Z,26.8
2018-06-11T11:37:36.911Z,26.8
2018-06-11T11:38:26.734Z,26.8
2018-06-11T11:39:17.007Z,26.8
2018-06-11T11:40:07.120Z,26.8
2018-06-11T11:40:57.132Z,26.9
2018-06-11T11:41:47.499Z,26.9
2018-06-11T11:42:37.520Z,26.8
2018-06-11T11:43:26.260Z,26.9
2018-06-11T11:44:17.145Z,26.9
2018-06-11T11:45:06.922Z,26.9
2018-06-11T11:45:57.569Z,26.9
2018-06-11T11:46:47.008Z,26.8
2018-06-11T11:47:37.392Z,26.9
2018-06-11T11:48:27.477Z,26.9
2018-06-11T11:49:17.804Z,26.9
2018-06-11T11:50:08.140Z,26.9
2018-06-11T11:50:57.384Z,26.9
2018-06-11T11:51:47.978Z,26.9
2018-06-11T11:52:38.066Z,26.9
2018-06-11T11:53:28.403Z,26.9
2018-06-11T11:54:17.903Z,26.9
2018-06-11T11:55:07.740Z,26.9
2018-06-11T11:55:58.595Z,26.8
2018-06-11T11:56:47.849Z,26.9
2018-06-11T11:57:38.956Z,26.9
2018-06-11T11:58:28.810Z,26.9
2018-06-11T11:59:18.624Z,26.9
2018-06-11T12:00:08.409Z,26.9
2018-06-11T12:00:58.418Z,26.9
2018-06-11T12:01:49.644Z,26.9
2018-06-11T12:02:38.609Z,26.9
2018-06-11T12:03:29.209Z,26.9
2018-06-11T12:04:18.457Z,26.9
2018-06-11T12:05:09.014Z,26.9
2018-06-11T12:05:58.824Z,26.9
2018-06-11T12:06:49.447Z,26.9
2018-06-11T12:07:39.046Z,26.9
2018-06-11T12:08:29.089Z,26.9
2018-06-11T12:09:19.072Z,26.9
2018-06-11T12:10:09.196Z,26.9
2018-06-11T12:10:58.700Z,26.8
2018-06-11T12:11:49.127Z,26.8
2018-06-11T12:12:39.366Z,26.9
2018-06-11T12:13:28.855Z,26.9
2018-06-11T12:14:19.239Z,26.9
2018-06-11T12:15:09.858Z,26.9
2018-06-11T12:15:59.315Z,26.9
2018-06-11T12:16:49.648Z,26.9
2018-06-11T12:17:39.675Z,26.9
2018-06-11T12:18:30.414Z,26.9
2018-06-11T12:19:19.860Z,26.9
2018-06-11T12:20:09.914Z,26.9
2018-06-11T12:21:00.279Z,26.9
2018-06-11T12:21:50.331Z,26.9
2018-06-11T12:22:40.658Z,26.9
2018-06-11T12:23:30.422Z,26.9
2018-06-11T12:24:19.970Z,26.9
2018-06-11T12:25:11.687Z,26.9
2018-06-11T12:26:00.112Z,26.9
2018-06-11T12:26:49.630Z,26.9
2018-06-11T12:27:41.066Z,26.9
2018-06-11T12:28:30.562Z,26.9
2018-06-11T12:29:19.536Z,26.9
2018-06-11T12:30:10.976Z,26.9
2018-06-11T12:31:00.768Z,26.9
2018-06-11T12:31:50.301Z,26.9
2018-06-11T12:32:40.921Z,26.9
2018-06-11T12:33:31.221Z,26.9
2018-06-11T12:34:21.276Z,26.9
2018-06-11T12:35:11.089Z,26.9
2018-06-11T12:36:01.110Z,26.9
2018-06-11T12:36:50.649Z,26.9
2018-06-11T12:37:40.763Z,26.9
2018-06-11T12:38:31.721Z,27
2018-06-11T12:39:21.146Z,27
2018-06-11T12:40:10.953Z,26.9
2018-06-11T12:41:01.545Z,26.9
2018-06-11T12:41:51.931Z,27
2018-06-11T12:42:41.438Z,27
2018-06-11T12:43:31.483Z,27
2018-06-11T12:44:20.696Z,27
2018-06-11T12:45:11.653Z,26.9
2018-06-11T12:46:01.687Z,26.9
2018-06-11T12:46:52.339Z,27
2018-06-11T12:47:42.919Z,27
2018-06-11T12:48:32.123Z,26.9
2018-06-11T12:49:22.826Z,26.9
2018-06-11T12:50:11.467Z,26.9
2018-06-11T12:51:02.039Z,26.9
2018-06-11T12:51:52.082Z,27
2018-06-11T12:52:43.090Z,27
2018-06-11T12:53:33.079Z,27
2018-06-11T12:54:22.385Z,27
2018-06-11T12:55:12.689Z,27
2018-06-11T12:56:02.967Z,27
2018-06-11T12:56:52.770Z,26.9
2018-06-11T12:57:42.865Z,26.9
2018-06-11T12:58:32.347Z,26.9
2018-06-11T12:59:23.242Z,26.9
2018-06-11T13:00:13.342Z,26.9
2018-06-11T13:01:03.428Z,27
2018-06-11T13:01:53.830Z,27
2018-06-11T13:02:43.869Z,27
2018-06-11T13:03:33.569Z,27
2018-06-11T13:04:22.905Z,27
2018-06-11T13:05:13.777Z,27
2018-06-11T13:06:02.977Z,27
2018-06-11T13:06:53.849Z,27
2018-06-11T13:07:43.920Z,27
2018-06-11T13:08:34.272Z,27
2018-06-11T13:09:24.298Z,27.1
2018-06-11T13:10:14.189Z,27
2018-06-11T13:11:04.479Z,27.1
2018-06-11T13:11:53.477Z,27
2018-06-11T13:12:43.779Z,27
2018-06-11T13:13:34.141Z,27
2018-06-11T13:14:23.664Z,27
2018-06-11T13:15:14.267Z,26.9
2018-06-11T13:16:04.032Z,27
2018-06-11T13:16:54.632Z,27
2018-06-11T13:17:44.352Z,27
2018-06-11T13:18:33.671Z,27
2018-06-11T13:19:24.116Z,27
2018-06-11T13:20:14.735Z,27
2018-06-11T13:21:04.686Z,27.1
2018-06-11T13:21:54.775Z,27
2018-06-11T13:22:45.119Z,27
2018-06-11T13:23:34.962Z,27
2018-06-11T13:24:24.474Z,27
2018-06-11T13:25:13.906Z,27
2018-06-11T13:26:05.096Z,27
2018-06-11T13:26:54.858Z,27
2018-06-11T13:27:44.905Z,27
2018-06-11T13:28:34.977Z,27
2018-06-11T13:29:25.883Z,27
2018-06-11T13:30:15.698Z,27
2018-06-11T13:31:04.942Z,27
2018-06-11T13:31:55.534Z,27
2018-06-11T13:32:45.630Z,27.1
2018-06-11T13:33:35.916Z,27.1
2018-06-11T13:34:25.722Z,27.1
2018-06-11T13:35:16.081Z,27.1
2018-06-11T13:36:05.911Z,27
2018-06-11T13:36:55.126Z,27.1
2018-06-11T13:37:44.325Z,27.1
2018-06-11T13:38:36.339Z,27
2018-06-11T13:39:26.417Z,27
2018-06-11T13:40:16.517Z,27
2018-06-11T13:41:06.010Z,27
2018-06-11T13:41:56.595Z,27
2018-06-11T13:42:46.684Z,27
2018-06-11T13:43:36.473Z,27
2018-06-11T13:44:26.537Z,27
2018-06-11T13:45:16.611Z,27
2018-06-11T13:46:06.684Z,27.1
2018-06-11T13:46:56.170Z,27
2018-06-11T13:47:46.827Z,27
2018-06-11T13:48:37.182Z,27
2018-06-11T13:49:25.823Z,27
2018-06-11T13:50:18.140Z,27
2018-06-11T13:51:07.590Z,27
2018-06-11T13:51:56.812Z,27
2018-06-11T13:52:46.957Z,27
2018-06-11T13:53:37.602Z,27
2018-06-11T13:54:27.529Z,27
2018-06-11T13:55:17.956Z,27
2018-06-11T13:56:07.676Z,27
2018-06-11T13:56:58.016Z,27
2018-06-11T13:57:47.796Z,27
2018-06-11T13:58:37.613Z,27
2018-06-11T13:59:27.390Z,27
2018-06-11T14:00:18.066Z,27
2018-06-11T14:01:07.796Z,27
2018-06-11T14:01:58.426Z,27.1
2018-06-11T14:02:48.467Z,27
2018-06-11T14:03:38.005Z,27
2018-06-11T14:04:28.051Z,27
2018-06-11T14:05:18.235Z,27
2018-06-11T14:06:07.985Z,27
2018-06-11T14:06:58.233Z,27
2018-06-11T14:07:48.973Z,27
2018-06-11T14:08:38.378Z,27
2018-06-11T14:09:29.064Z,27
2018-06-11T14:10:19.153Z,26.9
2018-06-11T14:11:08.884Z,27
2018-06-11T14:11:57.845Z,27
2018-06-11T14:12:47.790Z,27
2018-06-11T14:13:38.567Z,27
2018-06-11T14:14:29.111Z,27
2018-06-11T14:15:18.910Z,26.9
2018-06-11T14:16:08.493Z,26.9
2018-06-11T14:16:59.332Z,26.9
2018-06-11T14:17:48.572Z,27
2018-06-11T14:18:38.895Z,27
2018-06-11T14:19:29.165Z,27
2018-06-11T14:20:19.646Z,26.9
2018-06-11T14:21:09.442Z,26.9
2018-06-11T14:21:59.978Z,26.9
2018-06-11T14:22:49.263Z,26.9
2018-06-11T14:23:39.805Z,26.9
2018-06-11T14:24:29.358Z,26.9
2018-06-11T14:25:19.416Z,26.9
2018-06-11T14:26:09.776Z,26.9
2018-06-11T14:27:00.118Z,26.9
2018-06-11T14:27:50.141Z,26.9
2018-06-11T14:28:40.907Z,26.9
2018-06-11T14:29:29.783Z,26.9
2018-06-11T14:30:19.846Z,26.9
2018-06-11T14:31:09.713Z,26.9
2018-06-11T14:31:59.953Z,26.9
2018-06-11T14:32:49.211Z,26.9
2018-06-11T14:33:40.991Z,26.9
2018-06-11T14:34:31.007Z,26.9
2018-06-11T14:35:19.499Z,26.9
2018-06-11T14:36:10.836Z,26.9
2018-06-11T14:37:00.358Z,26.9
2018-06-11T14:37:51.224Z,26.9
2018-06-11T14:38:39.868Z,26.9
2018-06-11T14:39:30.914Z,26.9
2018-06-11T14:40:21.483Z,26.9
2018-06-11T14:41:11.013Z,26.9
2018-06-11T14:42:01.004Z,26.9
2018-06-11T14:42:51.430Z,26.9
2018-06-11T14:43:41.445Z,26.9
2018-06-11T14:44:30.743Z,26.9
2018-06-11T14:45:20.971Z,26.9
2018-06-11T14:46:11.067Z,26.9
2018-06-11T14:47:01.115Z,26.9
2018-06-11T14:47:50.945Z,26.9
2018-06-11T14:48:41.562Z,26.9
2018-06-11T14:49:32.217Z,26.9
2018-06-11T14:50:21.431Z,26.9
2018-06-11T14:51:10.921Z,26.9
2018-06-11T14:52:01.260Z,26.9
2018-06-11T14:52:51.573Z,26.8
2018-06-11T14:53:41.374Z,26.9
2018-06-11T14:54:32.339Z,26.8
2018-06-11T14:55:22.587Z,26.9
2018-06-11T14:56:12.132Z,26.9
2018-06-11T14:57:02.113Z,26.9
2018-06-11T14:57:51.664Z,26.8
2018-06-11T14:58:42.604Z,26.8
2018-06-11T14:59:32.908Z,26.9
2018-06-11T15:00:22.984Z,26.9
2018-06-11T15:01:13.040Z,26.9
2018-06-11T15:02:02.648Z,26.9
2018-06-11T15:02:52.901Z,26.8
2018-06-11T15:03:43.048Z,26.8
2018-06-11T15:04:31.726Z,26.8
2018-06-11T15:05:23.085Z,26.8
2018-06-11T15:06:12.880Z,26.8
2018-06-11T15:07:02.701Z,26.8
2018-06-11T15:07:53.101Z,26.8
2018-06-11T15:08:43.564Z,26.8
2018-06-11T15:09:34.644Z,26.8
2018-06-11T15:10:23.458Z,26.8
2018-06-11T15:11:13.608Z,26.8
2018-06-11T15:12:03.877Z,26.8
2018-06-11T15:12:53.376Z,26.8
2018-06-11T15:13:43.695Z,26.8
2018-06-11T15:14:33.827Z,26.8
2018-06-11T15:15:23.943Z,26.8
2018-06-11T15:16:14.201Z,26.8
2018-06-11T15:17:04.007Z,26.8
2018-06-11T15:17:54.344Z,26.8
2018-06-11T15:18:43.567Z,26.8
2018-06-11T15:19:34.195Z,26.8
2018-06-11T15:20:24.270Z,26.8
2018-06-11T15:21:14.585Z,26.8
2018-06-11T15:22:04.625Z,26.8
2018-06-11T15:22:54.452Z,26.8
2018-06-11T15:23:44.875Z,26.8
2018-06-11T15:24:34.687Z,26.8
2018-06-11T15:25:24.695Z,26.8
2018-06-11T15:26:15.032Z,26.8
2018-06-11T15:27:04.585Z,26.8
2018-06-11T15:27:55.135Z,26.8
2018-06-11T15:28:43.562Z,26.8
2018-06-11T15:29:35.160Z,26.8
2018-06-11T15:30:25.068Z,26.8
2018-06-11T15:31:15.396Z,26.8
2018-06-11T15:32:04.872Z,26.8
2018-06-11T15:32:54.136Z,26.7
2018-06-11T15:33:45.296Z,26.7
2018-06-11T15:34:34.555Z,26.8
2018-06-11T15:35:25.438Z,26.8
2018-06-11T15:36:15.747Z,26.8
2018-06-11T15:37:04.762Z,26.8
2018-06-11T15:37:55.933Z,26.7
2018-06-11T15:38:45.461Z,26.8
2018-06-11T15:39:35.516Z,26.8
2018-06-11T15:40:26.115Z,26.8
2018-06-11T15:41:15.623Z,26.8
2018-06-11T15:42:04.925Z,26.8
2018-06-11T15:42:55.766Z,26.8
2018-06-11T15:43:44.967Z,26.8
2018-06-11T15:44:35.040Z,26.8
2018-06-11T15:45:26.271Z,26.8
2018-06-11T15:46:16.008Z,26.8
2018-06-11T15:47:05.765Z,26.8
2018-06-11T15:47:56.446Z,26.8
2018-06-11T15:48:46.206Z,26.8
2018-06-11T15:49:35.750Z,26.8
2018-06-11T15:50:26.644Z,26.8
2018-06-11T15:51:16.393Z,26.8
2018-06-11T15:52:06.992Z,26.8
2018-06-11T15:52:56.809Z,26.8
2018-06-11T15:53:45.475Z,26.8
2018-06-11T15:54:36.402Z,26.8
2018-06-11T15:55:27.013Z,26.8
2018-06-11T15:56:16.477Z,26.8
2018-06-11T15:57:06.853Z,26.8
2018-06-11T15:57:57.527Z,26.8
2018-06-11T15:58:46.977Z,26.8
2018-06-11T15:59:36.250Z,26.8
2018-06-11T16:00:26.835Z,26.8
2018-06-11T16:01:16.882Z,26.8
2018-06-11T16:02:06.703Z,26.7
2018-06-11T16:02:57.005Z,26.8
2018-06-11T16:03:47.350Z,26.7
2018-06-11T16:04:37.398Z,26.8
2018-06-11T16:05:28.488Z,26.8
2018-06-11T16:06:17.863Z,26.7
2018-06-11T16:07:07.653Z,26.8
2018-06-11T16:07:57.404Z,26.7
2018-06-11T16:08:48.115Z,26.7
2018-06-11T16:09:37.308Z,26.8
2018-06-11T16:10:27.325Z,26.7
2018-06-11T16:11:18.244Z,26.7
2018-06-11T16:12:08.638Z,26.7
2018-06-11T16:12:58.389Z,26.8
2018-06-11T16:13:48.738Z,26.7
2018-06-11T16:14:38.055Z,26.7
2018-06-11T16:15:28.815Z,26.7
2018-06-11T16:16:18.344Z,26.8
2018-06-11T16:17:08.708Z,26.7
2018-06-11T16:17:58.724Z,26.8
2018-06-11T16:18:48.542Z,26.8
2018-06-11T16:19:38.641Z,26.7
2018-06-11T16:20:28.955Z,26.7
2018-06-11T16:21:19.299Z,26.7
2018-06-11T16:22:09.409Z,26.7
2018-06-11T16:22:59.447Z,26.7
2018-06-11T16:23:49.228Z,26.7
2018-06-11T16:24:38.784Z,26.7
2018-06-11T16:25:29.434Z,26.7
2018-06-11T16:26:18.872Z,26.7
2018-06-11T16:27:09.497Z,26.7
2018-06-11T16:27:59.622Z,26.7
2018-06-11T16:28:49.338Z,26.7
2018-06-11T16:29:39.381Z,26.7
2018-06-11T16:30:29.467Z,26.7
2018-06-11T16:31:19.834Z,26.7
2018-06-11T16:32:09.908Z,26.7
2018-06-11T16:32:59.401Z,26.8
2018-06-11T16:33:50.016Z,26.8
2018-06-11T16:34:39.608Z,26.7
2018-06-11T16:35:29.876Z,26.7
2018-06-11T16:36:19.948Z,26.7
2018-06-11T16:37:11.672Z,26.7
2018-06-11T16:38:00.048Z,26.7
2018-06-11T16:38:50.107Z,26.7
2018-06-11T16:39:40.740Z,26.8
2018-06-11T16:40:30.501Z,26.7
2018-06-11T16:41:18.900Z,26.7
2018-06-11T16:42:11.006Z,26.8
2018-06-11T16:43:01.306Z,26.7
2018-06-11T16:43:50.236Z,26.7
2018-06-11T16:44:40.300Z,26.7
2018-06-11T16:45:30.057Z,26.7
2018-06-11T16:46:20.942Z,26.7
2018-06-11T16:47:10.321Z,26.8
2018-06-11T16:48:01.416Z,26.7
2018-06-11T16:48:52.000Z,26.8
2018-06-11T16:49:41.578Z,26.7
2018-06-11T16:50:30.262Z,26.8
2018-06-11T16:51:21.185Z,26.7
2018-06-11T16:52:11.164Z,26.8
2018-06-11T16:53:00.388Z,26.7
2018-06-11T16:53:51.578Z,26.8
2018-06-11T16:54:41.667Z,26.7
2018-06-11T16:55:31.715Z,26.7
2018-06-11T16:56:20.672Z,26.7
2018-06-11T16:57:10.677Z,26.7
2018-06-11T16:58:00.874Z,26.7
2018-06-11T16:58:51.495Z,26.7
2018-06-11T16:59:42.072Z,26.7
2018-06-11T17:00:31.784Z,26.7
2018-06-11T17:01:21.908Z,26.8
2018-06-11T17:02:09.295Z,26.7
2018-06-11T17:03:02.153Z,26.7
2018-06-11T17:03:50.755Z,26.7
2018-06-11T17:04:40.481Z,26.7
2018-06-11T17:05:31.114Z,26.7
2018-06-11T17:06:21.195Z,26.7
2018-06-11T17:07:10.661Z,26.7
2018-06-11T17:08:00.331Z,26.7
2018-06-11T17:08:50.968Z,26.7
2018-06-11T17:09:41.932Z,26.7
2018-06-11T17:10:31.029Z,26.7
2018-06-11T17:11:21.678Z,26.7
2018-06-11T17:12:10.294Z,26.7
2018-06-11T17:13:01.215Z,26.7
2018-06-11T17:13:50.847Z,26.7
2018-06-11T17:14:42.225Z,26.7
2018-06-11T17:15:31.432Z,26.7
2018-06-11T17:16:21.605Z,26.7
2018-06-11T17:17:13.420Z,26.7
2018-06-11T17:18:03.414Z,26.7
2018-06-11T17:18:53.496Z,26.7
2018-06-11T17:19:43.844Z,26.7
2018-06-11T17:20:33.635Z,26.7
2018-06-11T17:21:23.974Z,26.7
2018-06-11T17:22:13.469Z,26.7
2018-06-11T17:23:04.143Z,26.6
2018-06-11T17:23:53.621Z,26.7
2018-06-11T17:24:43.668Z,26.7
2018-06-11T17:25:34.410Z,26.7
2018-06-11T17:26:23.497Z,26.7
2018-06-11T17:27:13.643Z,26.7
2018-06-11T17:28:03.951Z,26.7
2018-06-11T17:28:54.529Z,26.6
2018-06-11T17:29:43.754Z,26.7
2018-06-11T17:30:34.646Z,26.6
2018-06-11T17:31:23.891Z,26.7
2018-06-11T17:32:14.788Z,26.6
2018-06-11T17:33:04.895Z,26.6
2018-06-11T17:33:54.371Z,26.6
2018-06-11T17:34:45.513Z,26.7
2018-06-11T17:35:35.092Z,26.7
2018-06-11T17:36:25.153Z,26.7
2018-06-11T17:37:14.417Z,26.7
2018-06-11T17:38:04.756Z,26.7
2018-06-11T17:38:54.217Z,26.6
2018-06-11T17:39:44.262Z,26.6
2018-06-11T17:40:34.977Z,26.6
2018-06-11T17:41:25.241Z,26.6
2018-06-11T17:42:15.018Z,26.6
2018-06-11T17:43:04.661Z,26.6
2018-06-11T17:43:55.176Z,26.6
2018-06-11T17:44:45.797Z,26.6
2018-06-11T17:45:34.494Z,26.6
2018-06-11T17:46:25.147Z,26.6
2018-06-11T17:47:15.185Z,26.6
2018-06-11T17:48:04.939Z,26.6
2018-06-11T17:48:55.243Z,26.6
2018-06-11T17:49:46.239Z,26.6
2018-06-11T17:50:35.406Z,26.6
2018-06-11T17:51:26.631Z,26.6
2018-06-11T17:52:16.231Z,26.6
2018-06-11T17:53:05.091Z,26.6
2018-06-11T17:53:56.228Z,26.6
2018-06-11T17:54:47.123Z,26.6
2018-06-11T17:55:36.040Z,26.6
2018-06-11T17:56:26.412Z,26.6
2018-06-11T17:57:16.563Z,26.6
2018-06-11T17:58:06.555Z,26.6
2018-06-11T17:58:56.802Z,26.6
2018-06-11T17:59:46.143Z,26.6
2018-06-11T18:00:37.802Z,26.6
2018-06-11T18:01:26.278Z,26.6
2018-06-11T18:02:16.370Z,26.6
2018-06-11T18:03:06.463Z,26.6
2018-06-11T18:03:56.485Z,26.6
2018-06-11T18:04:47.849Z,26.6
2018-06-11T18:05:38.093Z,26.6
2018-06-11T18:06:26.676Z,26.6
2018-06-11T18:07:16.708Z,26.6
2018-06-11T18:08:07.310Z,26.6
2018-06-11T18:08:56.840Z,26.6
2018-06-11T18:09:47.550Z,26.5
2018-06-11T18:10:36.990Z,26.6
2018-06-11T18:11:27.887Z,26.5
2018-06-11T18:12:16.794Z,26.5
2018-06-11T18:13:06.905Z,26.5
2018-06-11T18:13:56.639Z,26.5
2018-06-11T18:14:47.840Z,26.5
2018-06-11T18:15:37.910Z,26.5
2018-06-11T18:16:28.000Z,26.5
2018-06-11T18:17:17.784Z,26.5
2018-06-11T18:18:07.847Z,26.5
2018-06-11T18:18:56.474Z,26.5
2018-06-11T18:19:47.387Z,26.5
2018-06-11T18:20:38.163Z,26.5
2018-06-11T18:21:28.447Z,26.5
2018-06-11T18:22:17.884Z,26.5
2018-06-11T18:23:08.218Z,26.5
2018-06-11T18:23:58.072Z,26.5
2018-06-11T18:24:48.396Z,26.5
2018-06-11T18:25:37.924Z,26.5
2018-06-11T18:26:28.252Z,26.5
2018-06-11T18:27:19.126Z,26.5
2018-06-11T18:28:08.322Z,26.5
2018-06-11T18:28:58.711Z,26.5
2018-06-11T18:29:47.058Z,26.5
2018-06-11T18:30:37.928Z,26.5
2018-06-11T18:31:28.286Z,26.5
2018-06-11T18:32:19.299Z,26.5
2018-06-11T18:33:07.590Z,26.5
2018-06-11T18:33:59.415Z,26.5
2018-06-11T18:34:49.391Z,26.4
2018-06-11T18:35:39.578Z,26.4
2018-06-11T18:36:28.987Z,26.4
2018-06-11T18:37:18.203Z,26.4
2018-06-11T18:38:09.135Z,26.4
2018-06-11T18:38:59.541Z,26.4